createdAt,value
2023-01-21T00:01:10.366Z,2.80
2023-01-21T00:03:37.694Z,2.80
2023-01-21T00:06:05.629Z,2.80
2023-01-21T00:08:32.778Z,2.80
2023-01-21T00:11:14.795Z,2.80
2023-01-21T00:13:43.661Z,2.80
2023-01-21T00:16:11.428Z,2.90
2023-01-21T00:18:39.080Z,2.90
2023-01-21T00:21:06.336Z,2.80
2023-01-21T00:23:33.359Z,2.80
2023-01-21T00:26:02.738Z,2.80
2023-01-21T00:28:32.716Z,2.70
2023-01-21T00:31:02.153Z,2.70
2023-01-21T00:33:30.196Z,2.60
2023-01-21T00:36:01.630Z,2.60
2023-01-21T00:38:29.893Z,2.70
2023-01-21T00:41:11.951Z,2.60
2023-01-21T00:43:39.503Z,2.60
2023-01-21T00:46:07.616Z,2.60
2023-01-21T00:48:35.170Z,2.60
2023-01-21T00:51:02.503Z,2.60
2023-01-21T00:53:36.269Z,2.50
2023-01-21T00:56:06.972Z,2.50
2023-01-21T00:58:34.400Z,2.50
2023-01-21T01:01:09.946Z,2.50
2023-01-21T01:03:38.727Z,2.50
2023-01-21T01:06:10.680Z,2.50
2023-01-21T01:08:38.240Z,2.50
2023-01-21T01:11:06.463Z,2.50
2023-01-21T01:13:35.597Z,2.50
2023-01-21T01:16:03.162Z,2.50
2023-01-21T01:18:33.584Z,2.50
2023-01-21T01:21:01.521Z,2.50
2023-01-21T01:23:29.056Z,2.40
2023-01-21T01:26:02.624Z,2.40
2023-01-21T01:28:30.946Z,2.40
2023-01-21T01:30:59.403Z,2.40
2023-01-21T01:33:27.470Z,2.40
2023-01-21T01:35:54.670Z,2.40
2023-01-21T01:38:23.005Z,2.40
2023-01-21T01:40:52.529Z,2.40
2023-01-21T01:43:49.797Z,2.50
2023-01-21T01:46:17.049Z,2.40
2023-01-21T01:48:48.450Z,2.30
2023-01-21T01:51:21.575Z,2.30
2023-01-21T01:53:48.967Z,2.30
2023-01-21T01:56:16.366Z,2.30
2023-01-21T01:58:45.455Z,2.40
2023-01-21T02:01:12.735Z,2.30
2023-01-21T02:03:46.165Z,2.40
2023-01-21T02:06:15.792Z,2.40
2023-01-21T02:08:45.708Z,2.20
2023-01-21T02:11:16.168Z,2.20
2023-01-21T02:13:48.959Z,2.20
2023-01-21T02:16:37.581Z,2.20
2023-01-21T02:20:00.258Z,2.10
2023-01-21T02:22:37.596Z,2.10
2023-01-21T02:25:53.427Z,2.00
2023-01-21T02:28:45.031Z,2.10
2023-01-21T02:32:00.245Z,2.10
2023-01-21T02:35:01.340Z,2.10
2023-01-21T02:37:46.309Z,2.00
2023-01-21T02:40:37.984Z,2.00
2023-01-21T02:43:50.644Z,2.10
2023-01-21T02:46:26.744Z,2.00
2023-01-21T02:49:02.386Z,2.10
2023-01-21T02:51:29.294Z,2.00
2023-01-21T02:53:56.297Z,2.00
2023-01-21T02:56:26.498Z,2.00
2023-01-21T02:59:03.863Z,2.10
2023-01-21T03:02:14.114Z,2.00
2023-01-21T03:05:19.013Z,2.00
2023-01-21T03:08:04.097Z,2.00
2023-01-21T03:10:49.966Z,2.00
2023-01-21T03:13:49.638Z,2.00
2023-01-21T03:16:37.049Z,2.00
2023-01-21T03:19:07.010Z,2.00
2023-01-21T03:21:35.597Z,2.10
2023-01-21T03:24:03.224Z,2.10
2023-01-21T03:26:40.201Z,2.10
2023-01-21T03:29:15.254Z,2.00
2023-01-21T03:31:46.549Z,2.00
2023-01-21T03:34:16.791Z,2.00
2023-01-21T03:36:57.203Z,1.80
2023-01-21T03:39:53.886Z,1.80
2023-01-21T03:42:21.309Z,1.80
2023-01-21T03:44:48.279Z,1.80
2023-01-21T03:47:34.655Z,1.80
2023-01-21T03:50:11.599Z,1.70
2023-01-21T03:52:44.498Z,1.70
2023-01-21T03:55:14.939Z,1.50
2023-01-21T03:57:41.988Z,1.40
2023-01-21T04:00:10.323Z,1.40
2023-01-21T04:02:37.454Z,1.40
2023-01-21T04:05:04.951Z,1.40
2023-01-21T04:07:31.999Z,1.40
2023-01-21T04:09:58.946Z,1.50
2023-01-21T04:12:25.962Z,1.60
2023-01-21T04:14:53.307Z,1.60
2023-01-21T04:17:20.570Z,1.50
2023-01-21T04:19:47.555Z,1.50
2023-01-21T04:22:14.553Z,1.50
2023-01-21T04:24:41.576Z,1.60
2023-01-21T04:27:08.643Z,1.60
2023-01-21T04:29:35.723Z,1.60
2023-01-21T04:32:03.188Z,1.50
2023-01-21T04:34:30.212Z,1.60
2023-01-21T04:36:57.175Z,1.60
2023-01-21T04:39:24.108Z,1.60
2023-01-21T04:41:51.863Z,1.60
2023-01-21T04:44:18.844Z,1.50
2023-01-21T04:46:46.009Z,1.40
2023-01-21T04:49:13.239Z,1.50
2023-01-21T04:51:40.196Z,1.50
2023-01-21T04:54:07.201Z,1.60
2023-01-21T04:56:34.166Z,1.50
2023-01-21T04:59:01.200Z,1.50
2023-01-21T05:01:28.333Z,1.50
2023-01-21T05:03:55.520Z,1.50
2023-01-21T05:06:22.441Z,1.50
2023-01-21T05:08:49.520Z,1.40
2023-01-21T05:11:19.195Z,1.50
2023-01-21T05:13:46.383Z,1.50
2023-01-21T05:16:14.822Z,1.50
2023-01-21T05:18:42.042Z,1.50
2023-01-21T05:21:09.163Z,1.50
2023-01-21T05:23:36.085Z,1.40
2023-01-21T05:26:03.637Z,1.40
2023-01-21T05:28:30.619Z,1.40
2023-01-21T05:31:02.568Z,1.50
2023-01-21T05:33:34.709Z,1.40
2023-01-21T05:36:03.350Z,1.30
2023-01-21T05:38:30.463Z,1.30
2023-01-21T05:41:01.257Z,1.20
2023-01-21T05:43:29.344Z,1.20
2023-01-21T05:45:57.041Z,1.30
2023-01-21T05:48:24.494Z,1.30
2023-01-21T05:50:52.030Z,1.30
2023-01-21T05:53:19.770Z,1.30
2023-01-21T05:55:47.251Z,1.30
2023-01-21T05:58:14.382Z,1.40
2023-01-21T06:00:42.009Z,1.40
2023-01-21T06:03:09.180Z,1.40
2023-01-21T06:05:36.261Z,1.40
2023-01-21T06:08:03.812Z,1.30
2023-01-21T06:10:30.918Z,1.40
2023-01-21T06:12:58.269Z,1.40
2023-01-21T06:15:25.833Z,1.40
2023-01-21T06:17:53.583Z,1.50
2023-01-21T06:20:21.523Z,1.40
2023-01-21T06:22:48.670Z,1.40
2023-01-21T06:25:15.869Z,1.40
2023-01-21T06:27:43.216Z,1.50
2023-01-21T06:30:11.538Z,1.50
2023-01-21T06:32:38.923Z,1.50
2023-01-21T06:35:06.810Z,1.50
2023-01-21T06:37:33.885Z,1.50
2023-01-21T06:40:01.160Z,1.50
2023-01-21T06:42:28.312Z,1.50
2023-01-21T06:44:55.380Z,1.40
2023-01-21T06:47:22.620Z,1.50
2023-01-21T06:49:49.853Z,1.40
2023-01-21T06:52:17.064Z,1.40
2023-01-21T06:54:44.536Z,1.40
2023-01-21T06:57:12.145Z,1.40
2023-01-21T06:59:39.213Z,1.40
2023-01-21T07:02:07.754Z,1.30
2023-01-21T07:04:35.016Z,1.30
2023-01-21T07:07:02.150Z,1.40
2023-01-21T07:09:29.196Z,1.30
2023-01-21T07:11:56.234Z,1.30
2023-01-21T07:14:23.221Z,1.40
2023-01-21T07:16:50.188Z,1.40
2023-01-21T07:19:17.363Z,1.40
2023-01-21T07:21:44.249Z,1.30
2023-01-21T07:24:11.540Z,1.30
2023-01-21T07:26:38.613Z,1.30
2023-01-21T07:29:06.674Z,1.20
2023-01-21T07:31:34.067Z,1.20
2023-01-21T07:34:01.368Z,1.20
2023-01-21T07:36:28.482Z,1.30
2023-01-21T07:38:55.885Z,1.30
2023-01-21T07:41:23.737Z,1.30
2023-01-21T07:43:51.835Z,1.30
2023-01-21T07:46:20.807Z,1.30
2023-01-21T07:48:51.787Z,1.20
2023-01-21T07:51:22.982Z,1.30
2023-01-21T07:53:50.253Z,1.20
2023-01-21T07:56:18.524Z,1.30
2023-01-21T07:58:47.051Z,1.30
2023-01-21T08:01:15.215Z,1.40
2023-01-21T08:03:42.500Z,1.40
2023-01-21T08:06:09.756Z,1.40
2023-01-21T08:08:36.876Z,1.50
2023-01-21T08:11:04.018Z,1.60
2023-01-21T08:13:31.269Z,1.60
2023-01-21T08:15:58.561Z,1.60
2023-01-21T08:18:26.184Z,1.60
2023-01-21T08:20:58.383Z,1.60
2023-01-21T08:23:27.646Z,1.60
2023-01-21T08:25:55.497Z,1.60
2023-01-21T08:28:23.353Z,1.70
2023-01-21T08:30:51.140Z,1.60
2023-01-21T08:33:18.543Z,1.60
2023-01-21T08:35:47.023Z,1.70
2023-01-21T08:38:13.996Z,1.70
2023-01-21T08:40:41.201Z,1.70
2023-01-21T08:43:09.328Z,1.80
2023-01-21T08:45:36.291Z,1.80
2023-01-21T08:48:04.248Z,1.80
2023-01-21T08:50:31.323Z,1.90
2023-01-21T08:52:58.359Z,1.90
2023-01-21T08:55:26.979Z,1.90
2023-01-21T08:57:55.828Z,1.90
2023-01-21T09:00:24.039Z,1.90
2023-01-21T09:02:51.911Z,2.00
2023-01-21T09:05:19.728Z,1.90
2023-01-21T09:07:47.209Z,2.00
2023-01-21T09:10:34.406Z,2.00
2023-01-21T09:13:09.546Z,1.90
2023-01-21T09:15:41.920Z,2.00
2023-01-21T09:18:09.594Z,1.90
2023-01-21T09:20:37.328Z,2.00
2023-01-21T09:23:24.813Z,2.00
2023-01-21T09:26:14.643Z,2.10
2023-01-21T09:28:43.837Z,2.00
2023-01-21T09:31:17.217Z,2.10
2023-01-21T09:33:48.239Z,2.20
2023-01-21T09:36:20.044Z,2.10
2023-01-21T09:38:48.937Z,2.20
2023-01-21T09:41:25.389Z,2.20
2023-01-21T09:44:13.251Z,2.30
2023-01-21T09:46:46.210Z,2.30
2023-01-21T09:49:39.160Z,2.30
2023-01-21T09:52:25.869Z,2.30
2023-01-21T09:54:53.852Z,2.40
2023-01-21T09:57:59.629Z,2.40
2023-01-21T10:01:07.029Z,2.50
2023-01-21T10:03:40.365Z,2.50
2023-01-21T10:06:22.437Z,2.50
2023-01-21T10:09:15.785Z,2.40
2023-01-21T10:12:13.859Z,2.50
2023-01-21T10:15:13.076Z,2.50
2023-01-21T10:17:52.535Z,2.60
2023-01-21T10:20:36.642Z,2.60
2023-01-21T10:23:29.129Z,2.60
2023-01-21T10:25:59.336Z,2.60
2023-01-21T10:28:30.517Z,2.60
2023-01-21T10:31:16.597Z,2.60
2023-01-21T10:33:43.835Z,2.70
2023-01-21T10:36:54.402Z,2.70
2023-01-21T10:39:27.287Z,2.70
2023-01-21T10:42:33.652Z,2.70
2023-01-21T10:45:12.756Z,2.70
2023-01-21T10:48:12.457Z,2.70
2023-01-21T10:50:57.232Z,2.70
2023-01-21T10:54:03.973Z,2.70
2023-01-21T10:56:43.551Z,2.60
2023-01-21T10:59:17.301Z,2.70
2023-01-21T11:02:04.036Z,2.80
2023-01-21T11:04:31.151Z,2.80
2023-01-21T11:07:02.611Z,2.90
2023-01-21T11:09:34.555Z,2.90
2023-01-21T11:12:02.899Z,2.90
2023-01-21T11:14:30.272Z,3.00
2023-01-21T11:16:58.171Z,3.00
2023-01-21T11:19:29.018Z,3.00
2023-01-21T11:22:14.487Z,3.10
2023-01-21T11:24:50.033Z,3.10
2023-01-21T11:27:21.481Z,3.20
2023-01-21T11:29:50.598Z,3.10
2023-01-21T11:32:29.313Z,3.20
2023-01-21T11:35:18.829Z,3.10
2023-01-21T11:37:46.640Z,3.20
2023-01-21T11:40:26.253Z,3.30
2023-01-21T11:42:57.227Z,3.30
2023-01-21T11:45:27.684Z,3.30
2023-01-21T11:47:55.353Z,3.20
2023-01-21T11:50:39.603Z,3.20
2023-01-21T11:53:18.792Z,3.20
2023-01-21T11:55:54.621Z,3.20
2023-01-21T11:58:40.483Z,3.20
2023-01-21T12:01:19.192Z,3.20
2023-01-21T12:03:53.222Z,3.20
2023-01-21T12:06:23.767Z,3.30
2023-01-21T12:08:55.722Z,3.20
2023-01-21T12:11:28.197Z,3.30
2023-01-21T12:14:22.485Z,3.30
2023-01-21T12:17:26.972Z,3.30
2023-01-21T12:20:48.248Z,3.20
2023-01-21T12:23:50.998Z,3.20
2023-01-21T12:26:41.507Z,3.20
2023-01-21T12:29:49.101Z,3.10
2023-01-21T12:32:26.624Z,3.10
2023-01-21T12:35:16.908Z,2.90
2023-01-21T12:37:57.200Z,3.00
2023-01-21T12:40:54.366Z,2.90
2023-01-21T12:43:26.875Z,2.80
2023-01-21T12:46:24.454Z,2.90
2023-01-21T12:48:56.466Z,2.90
2023-01-21T12:51:46.042Z,3.00
2023-01-21T12:54:44.153Z,3.10
2023-01-21T12:57:29.845Z,3.10
2023-01-21T13:00:17.502Z,3.10
2023-01-21T13:03:19.207Z,3.00
2023-01-21T13:06:23.991Z,3.00
2023-01-21T13:09:07.833Z,3.10
2023-01-21T13:11:43.720Z,3.00
2023-01-21T13:14:10.573Z,2.90
2023-01-21T13:16:54.580Z,2.90
2023-01-21T13:19:21.668Z,3.00
2023-01-21T13:22:02.712Z,2.90
2023-01-21T13:24:53.021Z,2.80
2023-01-21T13:27:31.497Z,2.70
2023-01-21T13:30:06.462Z,2.60
2023-01-21T13:32:48.574Z,2.50
2023-01-21T13:35:47.065Z,2.50
2023-01-21T13:38:33.304Z,2.40
2023-01-21T13:41:24.742Z,2.40
2023-01-21T13:44:37.866Z,2.30
2023-01-21T13:47:33.642Z,2.20
2023-01-21T13:50:33.108Z,2.20
2023-01-21T13:53:12.314Z,2.20
2023-01-21T13:56:23.550Z,2.30
2023-01-21T13:58:55.706Z,2.40
2023-01-21T14:01:52.263Z,2.30
2023-01-21T14:04:43.776Z,2.20
2023-01-21T14:07:40.359Z,2.20
2023-01-21T14:10:35.462Z,2.10
2023-01-21T14:13:33.573Z,2.10
2023-01-21T14:16:40.077Z,2.10
2023-01-21T14:19:15.486Z,2.10
2023-01-21T14:22:16.179Z,1.90
2023-01-21T14:24:53.188Z,1.90
2023-01-21T14:28:18.879Z,1.90
2023-01-21T14:31:16.104Z,1.90
2023-01-21T14:33:53.016Z,1.80
2023-01-21T14:36:35.189Z,1.80
2023-01-21T14:39:36.083Z,1.80
2023-01-21T14:42:12.508Z,1.90
2023-01-21T14:44:44.088Z,2.00
2023-01-21T14:47:24.760Z,2.00
2023-01-21T14:49:54.114Z,1.90
2023-01-21T14:52:31.464Z,1.90
2023-01-21T14:54:59.725Z,1.90
2023-01-21T14:57:32.172Z,1.90
2023-01-21T15:00:29.835Z,1.90
2023-01-21T15:03:16.856Z,2.00
2023-01-21T15:05:49.403Z,1.90
2023-01-21T15:08:46.026Z,1.90
2023-01-21T15:11:30.453Z,1.90
2023-01-21T15:14:25.504Z,1.90
2023-01-21T15:16:53.546Z,1.80
2023-01-21T15:19:33.487Z,1.90
2023-01-21T15:22:08.225Z,1.90
2023-01-21T15:24:35.061Z,1.90
2023-01-21T15:27:29.131Z,2.00
2023-01-21T15:30:02.004Z,2.00
2023-01-21T15:32:45.900Z,2.00
2023-01-21T15:35:45.393Z,2.10
2023-01-21T15:38:15.198Z,2.10
2023-01-21T15:41:07.235Z,2.10
2023-01-21T15:43:55.063Z,2.10
2023-01-21T15:46:58.251Z,2.10
2023-01-21T15:49:55.661Z,2.10
2023-01-21T15:52:53.621Z,2.10
2023-01-21T15:56:09.523Z,2.10
2023-01-21T15:59:19.832Z,2.10
2023-01-21T16:02:07.985Z,2.10
2023-01-21T16:05:03.050Z,2.10
2023-01-21T16:08:00.229Z,2.10
2023-01-21T16:10:58.644Z,2.10
2023-01-21T16:13:43.593Z,2.10
2023-01-21T16:16:35.645Z,2.10
2023-01-21T16:19:20.415Z,2.20
2023-01-21T16:21:54.567Z,2.20
2023-01-21T16:24:25.919Z,2.20
2023-01-21T16:26:52.936Z,2.20
2023-01-21T16:29:20.209Z,2.10
2023-01-21T16:31:59.286Z,2.10
2023-01-21T16:34:43.396Z,2.10
2023-01-21T16:37:18.029Z,2.00
2023-01-21T16:39:45.618Z,2.00
2023-01-21T16:42:40.967Z,2.00
2023-01-21T16:45:25.967Z,2.10
2023-01-21T16:47:57.325Z,2.10
2023-01-21T16:50:28.717Z,2.10
2023-01-21T16:52:57.560Z,2.10
2023-01-21T16:55:30.701Z,2.10
2023-01-21T16:57:59.337Z,2.10
2023-01-21T17:00:30.630Z,2.20
2023-01-21T17:03:03.604Z,2.10
2023-01-21T17:05:36.899Z,2.10
2023-01-21T17:08:10.590Z,2.10
2023-01-21T17:11:00.819Z,2.10
2023-01-21T17:13:31.149Z,2.10
2023-01-21T17:16:01.290Z,2.10
2023-01-21T17:18:34.684Z,2.10
2023-01-21T17:21:16.375Z,2.20
2023-01-21T17:23:48.267Z,2.20
2023-01-21T17:26:20.726Z,2.30
2023-01-21T17:29:08.381Z,2.20
2023-01-21T17:31:42.223Z,2.20
2023-01-21T17:34:15.374Z,2.20
2023-01-21T17:36:46.285Z,2.20
2023-01-21T17:39:14.213Z,2.20
2023-01-21T17:41:44.827Z,2.20
2023-01-21T17:44:21.585Z,2.10
2023-01-21T17:46:52.881Z,2.10
2023-01-21T17:49:25.643Z,2.10
2023-01-21T17:51:54.634Z,2.20
2023-01-21T17:54:25.876Z,2.20
2023-01-21T17:56:58.642Z,2.20
2023-01-21T17:59:34.317Z,2.20
2023-01-21T18:02:04.537Z,2.20
2023-01-21T18:04:31.959Z,2.20
2023-01-21T18:06:58.917Z,2.20
2023-01-21T18:09:28.244Z,2.20
2023-01-21T18:11:57.477Z,2.20
2023-01-21T18:14:26.093Z,2.20
2023-01-21T18:16:54.170Z,2.10
2023-01-21T18:19:40.606Z,2.20
2023-01-21T18:22:20.869Z,2.20
2023-01-21T18:24:47.850Z,2.20
2023-01-21T18:27:15.840Z,2.20
2023-01-21T18:29:43.322Z,2.30
2023-01-21T18:32:15.447Z,2.30
2023-01-21T18:34:42.503Z,2.20
2023-01-21T18:37:20.593Z,2.20
2023-01-21T18:39:47.776Z,2.30
2023-01-21T18:42:17.803Z,2.20
2023-01-21T18:44:45.323Z,2.20
2023-01-21T18:47:18.719Z,2.20
2023-01-21T18:49:49.389Z,2.20
2023-01-21T18:52:19.781Z,2.20
2023-01-21T18:54:47.256Z,2.20
2023-01-21T18:57:22.595Z,2.20
2023-01-21T18:59:49.675Z,2.20
2023-01-21T19:02:19.651Z,2.20
2023-01-21T19:04:47.815Z,2.30
2023-01-21T19:07:20.269Z,2.30
2023-01-21T19:09:50.405Z,2.30
2023-01-21T19:12:21.217Z,2.20
2023-01-21T19:14:48.829Z,2.20
2023-01-21T19:17:38.120Z,2.20
2023-01-21T19:20:06.288Z,2.20
2023-01-21T19:22:33.205Z,2.20
2023-01-21T19:25:00.201Z,2.20
2023-01-21T19:27:32.650Z,2.20
2023-01-21T19:29:59.601Z,2.20
2023-01-21T19:32:26.882Z,2.20
2023-01-21T19:34:55.771Z,2.30
2023-01-21T19:37:24.601Z,2.20
2023-01-21T19:39:51.754Z,2.20
2023-01-21T19:42:18.944Z,2.20
2023-01-21T19:44:45.837Z,2.20
2023-01-21T19:47:25.133Z,2.20
2023-01-21T19:49:52.192Z,2.20
2023-01-21T19:52:19.104Z,2.30
2023-01-21T19:54:46.276Z,2.30
2023-01-21T19:57:17.234Z,2.30
2023-01-21T19:59:45.398Z,2.40
2023-01-21T20:02:12.863Z,2.30
2023-01-21T20:04:39.894Z,2.30
2023-01-21T20:07:07.236Z,2.30
2023-01-21T20:09:34.365Z,2.30
2023-01-21T20:12:03.489Z,2.40
2023-01-21T20:14:33.559Z,2.40
2023-01-21T20:17:02.377Z,2.40
2023-01-21T20:19:29.513Z,2.40
2023-01-21T20:22:02.171Z,2.40
2023-01-21T20:24:33.422Z,2.40
2023-01-21T20:27:02.705Z,2.40
2023-01-21T20:29:29.912Z,2.40
2023-01-21T20:31:58.308Z,2.40
2023-01-21T20:34:27.595Z,2.40
2023-01-21T20:36:55.308Z,2.40
2023-01-21T20:39:22.799Z,2.40
2023-01-21T20:41:50.295Z,2.50
2023-01-21T20:44:17.591Z,2.50
2023-01-21T20:46:45.870Z,2.50
2023-01-21T20:49:13.391Z,2.50
2023-01-21T20:51:40.467Z,2.50
2023-01-21T20:54:07.491Z,2.50
2023-01-21T20:56:34.486Z,2.50
2023-01-21T20:59:01.723Z,2.50
2023-01-21T21:01:30.057Z,2.60
2023-01-21T21:03:57.302Z,2.60
2023-01-21T21:06:28.670Z,2.60
2023-01-21T21:08:56.256Z,2.60
2023-01-21T21:11:23.597Z,2.70
2023-01-21T21:13:52.505Z,2.70
2023-01-21T21:16:30.060Z,2.70
2023-01-21T21:18:57.738Z,2.70
2023-01-21T21:21:25.121Z,2.70
2023-01-21T21:23:53.033Z,2.70
2023-01-21T21:26:26.407Z,2.70
2023-01-21T21:28:54.848Z,2.70
2023-01-21T21:31:23.049Z,2.70
2023-01-21T21:33:50.487Z,2.80
2023-01-21T21:36:21.450Z,2.70
2023-01-21T21:38:49.008Z,2.70
2023-01-21T21:41:37.984Z,2.70
2023-01-21T21:44:06.108Z,2.70
2023-01-21T21:46:51.637Z,2.70
2023-01-21T21:49:18.712Z,2.70
2023-01-21T21:51:46.146Z,2.70
2023-01-21T21:54:15.643Z,2.70
2023-01-21T21:56:43.381Z,2.80
2023-01-21T21:59:12.260Z,2.80
2023-01-21T22:01:41.576Z,2.80
2023-01-21T22:04:08.730Z,2.80
2023-01-21T22:06:35.888Z,2.80
2023-01-21T22:09:03.593Z,2.80
2023-01-21T22:11:30.547Z,2.80
2023-01-21T22:13:58.402Z,2.90
2023-01-21T22:16:28.933Z,2.90
2023-01-21T22:18:58.453Z,2.90
2023-01-21T22:21:32.826Z,2.90
2023-01-21T22:24:02.443Z,2.90
2023-01-21T22:26:29.836Z,2.90
2023-01-21T22:28:57.129Z,2.90
2023-01-21T22:31:28.665Z,2.80
2023-01-21T22:33:57.804Z,2.80
2023-01-21T22:36:28.347Z,2.80
2023-01-21T22:38:56.322Z,2.80
2023-01-21T22:41:24.850Z,2.90
2023-01-21T22:43:53.424Z,2.80
2023-01-21T22:46:25.894Z,2.80
2023-01-21T22:48:55.888Z,2.80
2023-01-21T22:51:23.700Z,2.80
2023-01-21T22:53:52.417Z,2.80
2023-01-21T22:56:31.416Z,2.80
2023-01-21T22:59:07.247Z,2.80
2023-01-21T23:01:36.440Z,2.80
2023-01-21T23:04:03.589Z,2.80
2023-01-21T23:06:30.626Z,2.80
2023-01-21T23:08:57.582Z,2.70
2023-01-21T23:11:24.534Z,2.70
2023-01-21T23:13:53.222Z,2.70
2023-01-21T23:16:21.547Z,2.60
2023-01-21T23:18:49.449Z,2.60
2023-01-21T23:21:20.606Z,2.60
2023-01-21T23:23:48.367Z,2.50
2023-01-21T23:26:15.966Z,2.50
2023-01-21T23:28:43.210Z,2.50
2023-01-21T23:31:16.507Z,2.50
2023-01-21T23:33:43.761Z,2.40
2023-01-21T23:36:13.492Z,2.40
2023-01-21T23:38:41.884Z,2.40
2023-01-21T23:41:12.342Z,2.40
2023-01-21T23:43:40.169Z,2.40
2023-01-21T23:46:10.769Z,2.30
2023-01-21T23:48:38.224Z,2.40
2023-01-21T23:51:08.274Z,2.40
2023-01-21T23:53:35.678Z,2.40
2023-01-21T23:56:10.936Z,2.40
2023-01-21T23:58:38.059Z,2.40
